createdAt,value
2022-07-31T01:33:05.869Z,73.48
2022-07-31T01:35:42.036Z,72.75
2022-07-31T01:38:42.442Z,71.93
2022-07-31T01:41:19.121Z,70.15
2022-07-31T01:43:52.974Z,70.71
2022-07-31T01:46:25.638Z,70.11
2022-07-31T01:48:58.545Z,69.89
2022-07-31T01:51:30.070Z,70.16
2022-07-31T01:54:02.670Z,69.81
2022-07-31T01:56:34.598Z,70.11
2022-07-31T01:59:20.596Z,69.42
2022-07-31T02:02:11.408Z,69.38
2022-07-31T02:04:42.443Z,69.37
2022-07-31T02:07:13.358Z,69.17
2022-07-31T02:09:52.392Z,69.17
2022-07-31T02:12:34.101Z,69.44
2022-07-31T02:15:09.505Z,69.11
2022-07-31T02:17:44.180Z,68.94
2022-07-31T02:20:28.055Z,68.51
2022-07-31T02:23:01.061Z,68.20
2022-07-31T02:25:34.227Z,68.12
2022-07-31T02:28:12.766Z,67.94
2022-07-31T02:30:46.370Z,68.03
2022-07-31T02:33:22.569Z,68.32
2022-07-31T02:35:57.715Z,67.71
2022-07-31T02:38:30.628Z,68.02
2022-07-31T02:41:05.955Z,68.19
2022-07-31T02:43:38.465Z,67.45
2022-07-31T02:46:19.582Z,67.20
2022-07-31T02:48:51.657Z,67.23
2022-07-31T02:51:24.445Z,66.81
2022-07-31T02:53:56.772Z,66.42
2022-07-31T02:56:32.145Z,66.16
2022-07-31T02:59:03.149Z,66.35
2022-07-31T03:01:46.364Z,66.60
2022-07-31T03:04:16.856Z,66.59
2022-07-31T03:06:47.286Z,67.04
2022-07-31T03:09:18.385Z,65.93
2022-07-31T03:11:51.646Z,66.23
2022-07-31T03:14:24.110Z,66.46
2022-07-31T03:16:56.272Z,66.75
2022-07-31T03:19:27.918Z,66.63
2022-07-31T03:21:59.144Z,66.65
2022-07-31T03:24:30.069Z,66.50
2022-07-31T03:27:02.392Z,65.67
2022-07-31T03:29:43.856Z,66.11
2022-07-31T03:32:14.704Z,66.61
2022-07-31T03:34:44.881Z,65.67
2022-07-31T03:37:16.591Z,65.46
2022-07-31T03:39:46.832Z,65.60
2022-07-31T03:42:19.031Z,65.04
2022-07-31T03:44:50.873Z,65.09
2022-07-31T03:47:21.267Z,65.03
2022-07-31T03:49:52.262Z,64.71
2022-07-31T03:52:22.989Z,64.76
2022-07-31T03:54:54.189Z,64.11
2022-07-31T03:57:27.084Z,64.07
2022-07-31T04:00:03.072Z,64.26
2022-07-31T04:02:35.663Z,64.77
2022-07-31T04:05:26.039Z,64.71
2022-07-31T04:07:55.978Z,63.91
2022-07-31T04:10:26.179Z,64.69
2022-07-31T04:12:56.427Z,64.80
2022-07-31T04:15:27.451Z,64.84
2022-07-31T04:17:58.520Z,64.06
2022-07-31T04:20:37.086Z,63.54
2022-07-31T04:23:07.658Z,63.63
2022-07-31T04:25:55.851Z,63.77
2022-07-31T04:28:33.446Z,62.97
2022-07-31T04:31:03.914Z,63.67
2022-07-31T04:33:47.379Z,63.81
2022-07-31T04:36:29.721Z,63.50
2022-07-31T04:39:03.667Z,63.08
2022-07-31T04:41:34.499Z,62.50
2022-07-31T04:44:04.737Z,62.32
2022-07-31T04:46:52.216Z,62.75
2022-07-31T04:49:22.621Z,62.68
2022-07-31T04:51:53.308Z,62.15
2022-07-31T04:54:24.418Z,61.59
2022-07-31T04:56:55.033Z,61.29
2022-07-31T04:59:57.928Z,61.33
2022-07-31T05:02:16.190Z,61.53
2022-07-31T05:04:47.111Z,60.64
2022-07-31T05:07:29.248Z,61.18
2022-07-31T05:10:01.227Z,61.96
2022-07-31T05:12:33.819Z,61.29
2022-07-31T05:15:22.792Z,60.97
2022-07-31T05:17:53.766Z,61.75
2022-07-31T05:20:42.360Z,61.84
2022-07-31T05:23:31.038Z,61.14
2022-07-31T05:26:10.431Z,61.13
2022-07-31T05:28:41.343Z,60.85
2022-07-31T05:31:13.620Z,60.22
2022-07-31T05:33:44.243Z,60.70
2022-07-31T05:36:16.095Z,61.09
2022-07-31T05:38:47.661Z,61.87
2022-07-31T05:41:36.332Z,61.67
2022-07-31T05:44:25.142Z,61.26
2022-07-31T05:49:24.459Z,61.68
2022-07-31T05:51:58.863Z,61.68
2022-07-31T05:54:29.108Z,62.05
2022-07-31T05:57:26.439Z,61.80
2022-07-31T06:00:07.800Z,61.41
2022-07-31T06:02:44.866Z,59.27
2022-07-31T06:05:47.444Z,60.88
2022-07-31T06:08:17.606Z,60.61
2022-07-31T06:10:50.832Z,60.43
2022-07-31T06:13:21.612Z,60.03
2022-07-31T06:15:51.736Z,59.12
2022-07-31T06:18:22.346Z,59.03
2022-07-31T06:20:53.212Z,59.80
2022-07-31T06:23:29.819Z,60.11
2022-07-31T06:26:26.126Z,60.23
2022-07-31T06:28:57.880Z,59.11
2022-07-31T06:31:28.289Z,59.30
2022-07-31T06:34:26.017Z,59.61
2022-07-31T06:36:56.900Z,59.60
2022-07-31T06:39:53.950Z,60.02
2022-07-31T06:42:36.139Z,59.97
2022-07-31T06:45:10.105Z,59.84
2022-07-31T06:48:17.743Z,60.39
2022-07-31T06:51:14.462Z,60.41
2022-07-31T06:53:50.194Z,59.88
2022-07-31T06:56:20.527Z,60.65
2022-07-31T06:58:50.821Z,60.66
2022-07-31T07:01:21.096Z,60.67
2022-07-31T07:03:51.612Z,60.66
2022-07-31T07:06:21.913Z,60.24
2022-07-31T07:08:52.664Z,60.88
2022-07-31T07:11:25.183Z,61.04
2022-07-31T07:13:55.381Z,61.27
2022-07-31T07:16:25.710Z,61.58
2022-07-31T07:18:56.300Z,61.81
2022-07-31T07:21:26.830Z,62.20
2022-07-31T07:23:57.240Z,61.76
2022-07-31T07:26:39.564Z,61.44
2022-07-31T07:29:12.734Z,61.28
2022-07-31T07:31:44.061Z,60.87
2022-07-31T07:34:15.306Z,61.11
2022-07-31T07:36:45.445Z,60.61
2022-07-31T07:39:23.648Z,60.49
2022-07-31T07:41:55.611Z,60.81
2022-07-31T07:44:26.102Z,61.39
2022-07-31T07:46:56.263Z,61.50
2022-07-31T07:49:26.680Z,61.22
2022-07-31T07:52:20.176Z,61.26
2022-07-31T07:55:07.745Z,61.48
2022-07-31T07:58:00.947Z,61.29
2022-07-31T08:00:31.129Z,61.52
2022-07-31T08:03:48.261Z,60.72
2022-07-31T08:05:55.674Z,60.62
2022-07-31T08:08:25.929Z,63.03
2022-07-31T08:11:34.628Z,62.56
2022-07-31T08:14:15.242Z,63.53
2022-07-31T08:17:04.260Z,63.89
2022-07-31T08:19:34.535Z,63.86
2022-07-31T08:22:05.095Z,63.96
2022-07-31T08:24:35.475Z,64.05
2022-07-31T08:27:23.848Z,64.06
2022-07-31T08:30:10.868Z,64.20
2022-07-31T08:32:41.073Z,64.35
2022-07-31T08:35:26.207Z,64.25
2022-07-31T08:38:03.347Z,64.20
2022-07-31T08:40:42.970Z,64.05
2022-07-31T08:46:07.271Z,63.95
2022-07-31T08:48:43.381Z,63.65
2022-07-31T08:51:18.617Z,63.72
2022-07-31T08:54:11.876Z,63.75
2022-07-31T08:56:42.857Z,64.03
2022-07-31T08:59:13.829Z,63.73
2022-07-31T09:01:44.172Z,64.05
2022-07-31T09:04:14.825Z,64.17
2022-07-31T09:06:45.217Z,64.43
2022-07-31T09:09:17.721Z,64.86
2022-07-31T09:11:53.044Z,64.86
2022-07-31T09:14:42.311Z,64.68
2022-07-31T09:17:17.515Z,64.74
2022-07-31T09:19:52.689Z,64.83
2022-07-31T09:22:34.101Z,65.14
2022-07-31T09:25:18.243Z,65.25
2022-07-31T09:27:50.463Z,65.01
2022-07-31T09:30:21.188Z,64.85
2022-07-31T09:33:23.986Z,65.05
2022-07-31T09:36:03.524Z,65.98
2022-07-31T09:38:43.345Z,66.34
2022-07-31T09:41:57.934Z,66.97
2022-07-31T09:44:42.337Z,67.22
2022-07-31T09:47:34.255Z,67.67
2022-07-31T09:50:08.930Z,67.91
2022-07-31T09:52:39.276Z,67.50
2022-07-31T09:55:16.044Z,67.45
2022-07-31T09:57:56.901Z,71.71
2022-07-31T10:00:30.592Z,71.78
2022-07-31T10:03:02.517Z,70.29
2022-07-31T10:05:34.167Z,71.66
2022-07-31T10:08:06.818Z,72.54
2022-07-31T10:11:00.057Z,73.51
2022-07-31T10:13:47.362Z,74.48
2022-07-31T10:16:18.641Z,75.63
2022-07-31T10:19:13.588Z,76.02
2022-07-31T10:22:07.370Z,76.61
2022-07-31T10:24:47.590Z,76.81
2022-07-31T10:27:21.704Z,77.54
2022-07-31T10:30:01.094Z,78.24
2022-07-31T10:32:31.730Z,78.44
2022-07-31T10:35:20.522Z,77.24
2022-07-31T10:38:21.357Z,78.55
2022-07-31T10:41:34.314Z,78.43
2022-07-31T10:44:22.313Z,76.97
2022-07-31T10:47:17.314Z,77.82
2022-07-31T10:50:23.297Z,78.73
2022-07-31T10:53:19.436Z,77.76
2022-07-31T10:56:13.782Z,78.36
2022-07-31T10:59:10.558Z,78.48
2022-07-31T11:01:59.304Z,78.60
2022-07-31T11:04:48.268Z,78.01
2022-07-31T11:07:38.573Z,78.80
2022-07-31T11:10:17.107Z,78.83
2022-07-31T11:13:15.421Z,79.56
2022-07-31T11:15:49.046Z,79.70
2022-07-31T11:18:37.538Z,79.27
2022-07-31T11:21:37.234Z,78.77
2022-07-31T11:24:04.119Z,79.82
2022-07-31T11:26:41.696Z,80.05
2022-07-31T11:30:01.808Z,79.78
2022-07-31T11:32:17.235Z,79.56
2022-07-31T11:34:57.327Z,80.45
2022-07-31T11:37:46.093Z,80.33
2022-07-31T11:40:27.483Z,79.93
2022-07-31T11:43:27.203Z,80.21
2022-07-31T11:45:51.981Z,79.62
2022-07-31T11:48:27.229Z,79.32
2022-07-31T11:50:58.431Z,78.42
2022-07-31T11:53:29.292Z,78.30
2022-07-31T11:56:03.933Z,77.92
2022-07-31T11:58:34.080Z,77.59
2022-07-31T12:01:06.319Z,77.47
2022-07-31T12:03:39.282Z,77.34
2022-07-31T12:06:11.521Z,76.50
2022-07-31T12:08:42.946Z,76.85
2022-07-31T12:11:14.471Z,76.84
2022-07-31T12:13:49.713Z,76.53
2022-07-31T12:16:23.458Z,76.91
2022-07-31T12:18:56.188Z,77.48
2022-07-31T12:21:52.789Z,77.07
2022-07-31T12:24:23.302Z,77.00
2022-07-31T12:27:04.515Z,76.90
2022-07-31T12:29:35.742Z,76.83
2022-07-31T12:32:14.258Z,77.31
2022-07-31T12:34:47.672Z,77.80
2022-07-31T12:37:19.683Z,77.67
2022-07-31T12:39:59.171Z,77.83
2022-07-31T12:42:41.621Z,78.79
2022-07-31T12:45:20.159Z,79.67
2022-07-31T12:47:56.274Z,80.01
2022-07-31T12:50:28.339Z,79.99
2022-07-31T12:53:02.666Z,79.95
2022-07-31T12:55:36.003Z,79.37
2022-07-31T12:58:06.345Z,78.92
2022-07-31T13:00:39.972Z,78.19
2022-07-31T13:03:10.535Z,77.66
2022-07-31T13:05:40.737Z,78.38
2022-07-31T13:08:10.897Z,78.50
2022-07-31T13:10:41.017Z,78.58
2022-07-31T13:13:11.309Z,78.56
2022-07-31T13:15:41.330Z,78.47
2022-07-31T13:18:12.694Z,78.53
2022-07-31T13:20:42.842Z,79.04
2022-07-31T13:23:13.311Z,79.13
2022-07-31T13:25:43.325Z,79.02
2022-07-31T13:28:13.636Z,79.63
2022-07-31T13:30:43.925Z,79.81
2022-07-31T13:33:14.174Z,79.86
2022-07-31T13:35:44.463Z,81.00
2022-07-31T13:38:17.909Z,81.14
2022-07-31T13:41:06.430Z,81.19
2022-07-31T13:43:36.646Z,81.19
2022-07-31T13:46:07.036Z,81.46
2022-07-31T13:48:37.379Z,81.08
2022-07-31T13:51:08.184Z,81.14
2022-07-31T13:53:38.347Z,81.78
2022-07-31T13:56:09.610Z,80.99
2022-07-31T13:58:40.361Z,80.70
2022-07-31T14:01:10.681Z,80.77
2022-07-31T14:03:41.434Z,80.88
2022-07-31T14:06:12.833Z,80.72
2022-07-31T14:08:49.713Z,80.50
2022-07-31T14:11:20.877Z,81.05
2022-07-31T14:13:50.878Z,80.35
2022-07-31T14:16:21.208Z,81.35
2022-07-31T14:18:51.387Z,81.23
2022-07-31T14:21:21.656Z,81.33
2022-07-31T14:23:52.069Z,81.41
2022-07-31T14:26:22.564Z,81.13
2022-07-31T14:28:52.552Z,81.36
2022-07-31T14:31:22.750Z,80.89
2022-07-31T14:33:52.875Z,80.53
2022-07-31T14:36:23.573Z,79.74
2022-07-31T14:38:53.774Z,79.25
2022-07-31T14:41:23.993Z,79.13
2022-07-31T14:43:54.165Z,78.66
2022-07-31T14:46:24.106Z,78.65
2022-07-31T14:48:54.292Z,78.21
2022-07-31T14:51:24.670Z,78.13
2022-07-31T14:53:55.176Z,77.72
2022-07-31T14:56:45.448Z,77.58
2022-07-31T14:59:15.370Z,77.25
2022-07-31T15:01:45.428Z,77.05
2022-07-31T15:04:15.545Z,76.48
2022-07-31T15:06:53.134Z,76.79
2022-07-31T15:09:29.404Z,76.63
2022-07-31T15:12:01.843Z,76.98
2022-07-31T15:14:33.632Z,76.88
2022-07-31T15:17:04.345Z,76.58
2022-07-31T15:19:35.016Z,76.60
2022-07-31T15:22:15.759Z,76.36
2022-07-31T15:24:49.059Z,76.53
2022-07-31T15:30:04.049Z,76.46
2022-07-31T15:32:36.546Z,77.22
2022-07-31T15:35:09.541Z,76.80
2022-07-31T15:37:41.310Z,76.76
2022-07-31T15:40:13.452Z,77.17
2022-07-31T15:42:45.528Z,76.86
2022-07-31T15:45:19.408Z,77.03
2022-07-31T15:47:50.588Z,77.31
2022-07-31T15:50:22.492Z,77.22
2022-07-31T15:52:53.292Z,77.16
2022-07-31T15:55:23.564Z,77.43
2022-07-31T15:57:53.772Z,77.22
2022-07-31T16:00:24.833Z,77.79
2022-07-31T16:02:55.093Z,77.80
2022-07-31T16:05:36.148Z,77.60
2022-07-31T16:08:29.023Z,77.08
2022-07-31T16:11:00.789Z,77.11
2022-07-31T16:13:31.137Z,77.11
2022-07-31T16:16:01.356Z,77.29
2022-07-31T16:18:32.053Z,77.56
2022-07-31T16:21:02.056Z,77.30
2022-07-31T16:23:32.101Z,77.08
2022-07-31T16:26:02.323Z,77.40
2022-07-31T16:28:32.464Z,77.41
2022-07-31T16:31:02.642Z,76.98
2022-07-31T16:33:32.705Z,77.40
2022-07-31T16:36:03.006Z,77.00
2022-07-31T16:38:33.337Z,77.39
2022-07-31T16:41:03.591Z,77.32
2022-07-31T16:43:49.556Z,77.44
2022-07-31T16:46:21.928Z,77.47
2022-07-31T16:48:51.900Z,77.81
2022-07-31T16:51:21.988Z,77.78
2022-07-31T16:54:13.349Z,77.63
2022-07-31T16:56:42.418Z,77.61
2022-07-31T16:59:12.634Z,78.20
2022-07-31T17:01:57.855Z,77.99
2022-07-31T17:04:30.866Z,77.99
2022-07-31T17:07:02.314Z,77.99
2022-07-31T17:09:33.682Z,78.06
2022-07-31T17:12:04.094Z,78.21
2022-07-31T17:14:34.360Z,77.70
2022-07-31T17:17:04.598Z,77.67
2022-07-31T17:19:41.813Z,77.84
2022-07-31T17:22:18.770Z,78.10
2022-07-31T17:24:53.149Z,78.17
2022-07-31T17:27:24.187Z,78.03
2022-07-31T17:29:54.491Z,78.17
2022-07-31T17:32:24.578Z,78.13
2022-07-31T17:34:54.696Z,78.36
2022-07-31T17:37:26.123Z,77.84
2022-07-31T17:39:58.426Z,78.39
2022-07-31T17:42:29.554Z,78.43
2022-07-31T17:45:02.450Z,78.45
2022-07-31T17:47:33.219Z,78.69
2022-07-31T17:50:03.350Z,78.82
2022-07-31T17:52:33.393Z,78.37
2022-07-31T17:55:04.069Z,78.61
2022-07-31T17:57:36.011Z,78.73
2022-07-31T18:00:09.175Z,78.41
2022-07-31T18:02:39.387Z,78.42
2022-07-31T18:05:09.985Z,78.81
2022-07-31T18:07:41.072Z,78.83
2022-07-31T18:10:13.970Z,78.96
2022-07-31T18:12:57.688Z,78.98
2022-07-31T18:15:36.045Z,79.07
2022-07-31T18:18:06.513Z,78.71
2022-07-31T18:20:36.842Z,79.20
2022-07-31T18:23:07.041Z,78.73
2022-07-31T18:25:40.977Z,79.26
2022-07-31T18:28:12.035Z,79.33
2022-07-31T18:30:43.926Z,79.28
2022-07-31T18:33:16.018Z,78.76
2022-07-31T18:35:49.534Z,79.14
2022-07-31T18:38:19.974Z,78.88
2022-07-31T18:40:50.223Z,78.80
2022-07-31T18:43:20.503Z,79.04
2022-07-31T18:45:50.528Z,78.93
2022-07-31T18:48:20.560Z,79.01
2022-07-31T18:51:02.175Z,79.09
2022-07-31T18:53:34.990Z,78.90
2022-07-31T18:56:05.062Z,78.88
2022-07-31T18:58:35.024Z,78.97
2022-07-31T19:01:05.391Z,78.95
2022-07-31T19:03:35.579Z,79.34
2022-07-31T19:06:06.774Z,79.05
2022-07-31T19:08:37.081Z,79.16
2022-07-31T19:11:07.476Z,78.71
2022-07-31T19:13:37.629Z,78.75
2022-07-31T19:16:08.841Z,78.75
2022-07-31T19:18:40.823Z,78.84
2022-07-31T19:21:23.026Z,78.61
2022-07-31T19:24:01.642Z,78.89
2022-07-31T19:26:31.855Z,78.81
2022-07-31T19:29:02.054Z,78.49
2022-07-31T19:31:32.262Z,78.62
2022-07-31T19:34:02.315Z,78.54
2022-07-31T19:36:32.343Z,78.13
2022-07-31T19:39:02.334Z,78.37
2022-07-31T19:41:32.611Z,78.31
2022-07-31T19:44:02.977Z,78.09
2022-07-31T19:46:34.296Z,78.19
2022-07-31T19:49:05.020Z,78.22
2022-07-31T19:51:35.196Z,78.29
2022-07-31T19:54:05.536Z,78.36
2022-07-31T19:56:35.791Z,78.38
2022-07-31T19:59:06.000Z,78.12
2022-07-31T20:01:36.202Z,78.10
2022-07-31T20:04:06.479Z,78.29
2022-07-31T20:06:36.668Z,77.88
2022-07-31T20:09:08.995Z,78.18
2022-07-31T20:11:39.349Z,78.22
2022-07-31T20:14:09.350Z,78.28
2022-07-31T20:16:39.599Z,78.42
2022-07-31T20:19:09.772Z,77.89
2022-07-31T20:21:39.975Z,77.92
2022-07-31T20:24:10.395Z,78.13
2022-07-31T20:26:40.551Z,78.16
2022-07-31T20:29:10.601Z,78.04
2022-07-31T20:31:40.713Z,78.38
2022-07-31T20:34:10.750Z,78.42
2022-07-31T20:36:44.695Z,78.13
2022-07-31T20:39:14.974Z,78.13
2022-07-31T20:41:45.234Z,78.25
2022-07-31T20:44:15.516Z,78.44
2022-07-31T20:46:45.828Z,78.31
2022-07-31T20:49:19.848Z,78.06
2022-07-31T20:52:07.469Z,78.13
2022-07-31T20:54:38.036Z,78.40
2022-07-31T20:57:08.325Z,78.24
2022-07-31T20:59:38.354Z,78.33
2022-07-31T21:02:08.816Z,78.12
2022-07-31T21:04:38.940Z,78.51
2022-07-31T21:07:09.324Z,78.46
2022-07-31T21:09:40.658Z,78.14
2022-07-31T21:12:11.766Z,78.45
2022-07-31T21:14:41.847Z,78.61
2022-07-31T21:17:11.772Z,78.02
2022-07-31T21:19:42.119Z,78.17
2022-07-31T21:22:12.317Z,78.40
2022-07-31T21:24:42.561Z,78.18
2022-07-31T21:27:14.624Z,78.44
2022-07-31T21:29:45.040Z,78.67
2022-07-31T21:32:15.700Z,78.54
2022-07-31T21:34:46.136Z,78.37
2022-07-31T21:37:16.434Z,78.27
2022-07-31T21:39:46.793Z,78.53
2022-07-31T21:42:17.448Z,78.28
2022-07-31T21:44:48.443Z,78.51
2022-07-31T21:47:20.412Z,78.42
2022-07-31T21:49:58.184Z,78.60
2022-07-31T21:52:32.049Z,78.31
2022-07-31T21:55:06.697Z,78.58
2022-07-31T21:57:59.594Z,78.52
2022-07-31T22:00:29.695Z,78.57
2022-07-31T22:03:00.078Z,78.44
2022-07-31T22:05:48.801Z,78.60
2022-07-31T22:08:19.329Z,78.50
2022-07-31T22:10:51.703Z,78.92
2022-07-31T22:13:22.618Z,79.04
2022-07-31T22:15:59.675Z,79.15
2022-07-31T22:18:33.471Z,79.13
2022-07-31T22:21:09.569Z,79.11
2022-07-31T22:23:40.218Z,79.08
2022-07-31T22:26:10.849Z,78.99
2022-07-31T22:28:42.162Z,79.21
2022-07-31T22:31:12.852Z,79.34
2022-07-31T22:33:43.339Z,79.33
2022-07-31T22:36:13.324Z,79.18
2022-07-31T22:38:46.477Z,79.69
2022-07-31T22:41:16.829Z,79.34
2022-07-31T22:44:13.853Z,79.33
2022-07-31T22:46:39.503Z,79.80
2022-07-31T22:49:11.688Z,79.32
2022-07-31T22:51:46.363Z,79.62
2022-07-31T22:54:16.897Z,79.37
2022-07-31T22:56:47.109Z,79.86
2022-07-31T22:59:17.276Z,79.65
